createdAt,value
2023-02-12T00:01:13.141Z,15.13
2023-02-12T00:03:40.519Z,15.16
2023-02-12T00:06:09.123Z,15.17
2023-02-12T00:08:37.146Z,15.16
2023-02-12T00:11:20.417Z,15.15
2023-02-12T00:13:47.352Z,15.15
2023-02-12T00:16:16.848Z,15.14
2023-02-12T00:18:44.642Z,15.14
2023-02-12T00:21:12.667Z,15.12
2023-02-12T00:23:41.217Z,15.11
2023-02-12T00:26:09.879Z,15.14
2023-02-12T00:28:36.836Z,15.13
2023-02-12T00:31:08.664Z,15.12
2023-02-12T00:33:35.300Z,15.13
2023-02-12T00:36:01.905Z,15.12
2023-02-12T00:38:28.801Z,15.12
2023-02-12T00:40:55.327Z,15.11
2023-02-12T00:43:21.998Z,15.10
2023-02-12T00:45:48.627Z,15.09
2023-02-12T00:48:15.616Z,15.09
2023-02-12T00:50:45.844Z,15.08
2023-02-12T00:53:12.647Z,15.07
2023-02-12T00:55:39.247Z,15.06
2023-02-12T00:58:06.250Z,15.07
2023-02-12T01:00:33.133Z,15.05
2023-02-12T01:02:59.718Z,15.05
2023-02-12T01:05:26.438Z,15.05
2023-02-12T01:07:54.083Z,15.05
2023-02-12T01:10:21.434Z,15.04
2023-02-12T01:12:48.259Z,15.04
2023-02-12T01:15:16.228Z,15.04
2023-02-12T01:17:43.530Z,15.04
2023-02-12T01:20:13.913Z,15.03
2023-02-12T01:22:40.779Z,15.03
2023-02-12T01:25:07.761Z,15.02
2023-02-12T01:27:34.384Z,15.01
2023-02-12T01:30:01.111Z,15.01
2023-02-12T01:32:28.136Z,15.01
2023-02-12T01:34:54.731Z,14.97
2023-02-12T01:37:21.280Z,14.98
2023-02-12T01:39:47.842Z,14.97
2023-02-12T01:42:15.702Z,14.98
2023-02-12T01:45:06.284Z,14.98
2023-02-12T01:47:32.805Z,14.97
2023-02-12T01:49:59.425Z,14.95
2023-02-12T01:52:34.354Z,14.95
2023-02-12T01:55:05.458Z,14.95
2023-02-12T01:57:34.493Z,14.94
2023-02-12T02:00:03.449Z,14.94
2023-02-12T02:02:32.116Z,14.93
2023-02-12T02:05:02.759Z,14.93
2023-02-12T02:07:30.276Z,14.92
2023-02-12T02:09:57.896Z,14.91
2023-02-12T02:12:44.996Z,14.91
2023-02-12T02:15:12.096Z,14.89
2023-02-12T02:17:58.894Z,14.90
2023-02-12T02:20:46.723Z,14.89
2023-02-12T02:23:22.152Z,14.88
2023-02-12T02:26:07.145Z,14.87
2023-02-12T02:29:15.052Z,14.87
2023-02-12T02:31:52.175Z,14.86
2023-02-12T02:34:21.750Z,14.85
2023-02-12T02:37:01.781Z,14.81
2023-02-12T02:39:30.980Z,14.83
2023-02-12T02:42:10.106Z,14.78
2023-02-12T02:44:48.823Z,14.84
2023-02-12T02:47:19.077Z,14.80
2023-02-12T02:49:55.051Z,14.82
2023-02-12T02:52:28.432Z,14.82
2023-02-12T02:55:01.284Z,14.79
2023-02-12T02:58:01.370Z,14.81
2023-02-12T03:00:40.101Z,14.80
2023-02-12T03:03:12.177Z,14.74
2023-02-12T03:05:47.200Z,14.74
2023-02-12T03:08:34.349Z,14.74
2023-02-12T03:11:12.232Z,14.75
2023-02-12T03:14:03.589Z,14.77
2023-02-12T03:16:35.030Z,14.74
2023-02-12T03:19:24.970Z,14.75
2023-02-12T03:21:57.597Z,14.74
2023-02-12T03:24:32.346Z,14.74
2023-02-12T03:27:16.660Z,14.73
2023-02-12T03:29:43.661Z,14.69
2023-02-12T03:32:10.150Z,14.73
2023-02-12T03:34:51.414Z,14.72
2023-02-12T03:37:33.669Z,14.66
2023-02-12T03:40:23.426Z,14.68
2023-02-12T03:43:01.981Z,14.70
2023-02-12T03:45:37.317Z,14.70
2023-02-12T03:48:13.661Z,14.69
2023-02-12T03:51:02.714Z,14.68
2023-02-12T03:53:30.683Z,14.65
2023-02-12T03:56:07.749Z,14.65
2023-02-12T03:58:36.286Z,14.67
2023-02-12T04:01:04.192Z,14.63
2023-02-12T04:03:31.706Z,14.63
2023-02-12T04:05:58.311Z,14.65
2023-02-12T04:08:26.816Z,14.64
2023-02-12T04:11:10.393Z,14.67
2023-02-12T04:13:53.066Z,14.66
2023-02-12T04:16:40.534Z,14.65
2023-02-12T04:19:10.424Z,14.63
2023-02-12T04:21:45.963Z,14.65
2023-02-12T04:24:28.286Z,14.63
2023-02-12T04:27:02.249Z,14.59
2023-02-12T04:29:56.326Z,14.64
2023-02-12T04:32:30.759Z,14.62
2023-02-12T04:35:15.668Z,14.63
2023-02-12T04:37:46.608Z,14.58
2023-02-12T04:40:16.504Z,14.61
2023-02-12T04:42:48.884Z,14.61
2023-02-12T04:45:20.939Z,14.61
2023-02-12T04:47:47.616Z,14.59
2023-02-12T04:50:14.464Z,14.63
2023-02-12T04:52:41.021Z,14.63
2023-02-12T04:55:07.744Z,14.59
2023-02-12T04:57:34.333Z,14.62
2023-02-12T05:00:00.956Z,14.62
2023-02-12T05:02:27.492Z,14.61
2023-02-12T05:04:54.237Z,14.63
2023-02-12T05:07:20.841Z,14.62
2023-02-12T05:09:47.377Z,14.61
2023-02-12T05:12:13.944Z,14.60
2023-02-12T05:14:40.576Z,14.61
2023-02-12T05:17:07.178Z,14.59
2023-02-12T05:19:33.772Z,14.60
2023-02-12T05:22:00.337Z,14.60
2023-02-12T05:24:27.038Z,14.57
2023-02-12T05:26:53.653Z,14.57
2023-02-12T05:29:20.259Z,14.60
2023-02-12T05:31:47.019Z,14.60
2023-02-12T05:34:14.180Z,14.59
2023-02-12T05:36:41.116Z,14.61
2023-02-12T05:39:07.751Z,14.62
2023-02-12T05:41:35.602Z,14.62
2023-02-12T05:44:06.588Z,14.62
2023-02-12T05:46:33.934Z,14.63
2023-02-12T05:49:00.528Z,14.61
2023-02-12T05:51:28.084Z,14.62
2023-02-12T05:54:04.058Z,14.63
2023-02-12T05:56:33.862Z,14.59
2023-02-12T05:59:07.128Z,14.58
2023-02-12T06:01:38.064Z,14.60
2023-02-12T06:04:06.647Z,14.55
2023-02-12T06:06:34.045Z,14.59
2023-02-12T06:09:01.395Z,14.60
2023-02-12T06:11:28.292Z,14.61
2023-02-12T06:13:54.912Z,14.57
2023-02-12T06:16:22.857Z,14.60
2023-02-12T06:18:50.600Z,14.58
2023-02-12T06:21:18.836Z,14.60
2023-02-12T06:23:46.092Z,14.56
2023-02-12T06:26:12.901Z,14.60
2023-02-12T06:28:39.553Z,14.59
2023-02-12T06:31:16.999Z,14.60
2023-02-12T06:33:43.585Z,14.59
2023-02-12T06:36:10.220Z,14.59
2023-02-12T06:38:36.782Z,14.60
2023-02-12T06:41:04.469Z,14.61
2023-02-12T06:43:31.050Z,14.55
2023-02-12T06:46:01.439Z,14.60
2023-02-12T06:48:28.242Z,14.60
2023-02-12T06:50:54.884Z,14.59
2023-02-12T06:53:21.483Z,14.58
2023-02-12T06:55:48.037Z,14.60
2023-02-12T06:58:14.584Z,14.53
2023-02-12T07:00:41.182Z,14.59
2023-02-12T07:03:07.758Z,14.59
2023-02-12T07:05:37.882Z,14.56
2023-02-12T07:08:04.477Z,14.53
2023-02-12T07:10:31.258Z,14.55
2023-02-12T07:12:57.796Z,14.59
2023-02-12T07:15:24.372Z,14.55
2023-02-12T07:17:50.926Z,14.59
2023-02-12T07:20:17.698Z,14.58
2023-02-12T07:22:44.319Z,14.57
2023-02-12T07:25:10.868Z,14.59
2023-02-12T07:27:38.058Z,14.54
2023-02-12T07:30:08.328Z,14.59
2023-02-12T07:32:34.866Z,14.59
2023-02-12T07:35:01.556Z,14.57
2023-02-12T07:37:28.212Z,14.56
2023-02-12T07:39:54.803Z,14.54
2023-02-12T07:42:21.459Z,14.54
2023-02-12T07:44:48.709Z,14.54
2023-02-12T07:47:16.616Z,14.55
2023-02-12T07:49:43.182Z,14.60
2023-02-12T07:52:12.939Z,14.59
2023-02-12T07:54:39.862Z,14.56
2023-02-12T07:57:06.549Z,14.60
2023-02-12T07:59:33.115Z,14.63
2023-02-12T08:02:01.133Z,14.63
2023-02-12T08:04:28.044Z,14.61
2023-02-12T08:06:56.594Z,14.65
2023-02-12T08:09:28.034Z,14.65
2023-02-12T08:11:55.018Z,14.62
2023-02-12T08:14:22.665Z,14.66
2023-02-12T08:16:50.719Z,14.63
2023-02-12T08:19:21.759Z,14.67
2023-02-12T08:21:52.376Z,14.67
2023-02-12T08:24:19.330Z,14.67
2023-02-12T08:26:45.914Z,14.61
2023-02-12T08:29:19.183Z,14.68
2023-02-12T08:31:48.348Z,14.68
2023-02-12T08:34:23.944Z,14.69
2023-02-12T08:36:54.125Z,14.68
2023-02-12T08:39:21.414Z,14.67
2023-02-12T08:41:48.310Z,14.65
2023-02-12T08:44:15.611Z,14.61
2023-02-12T08:46:48.221Z,14.59
2023-02-12T08:49:20.355Z,14.60
2023-02-12T08:51:49.941Z,14.56
2023-02-12T08:54:22.687Z,14.57
2023-02-12T08:56:50.064Z,14.56
2023-02-12T08:59:17.519Z,14.50
2023-02-12T09:01:45.145Z,14.54
2023-02-12T09:04:26.977Z,14.54
2023-02-12T09:06:54.096Z,14.53
2023-02-12T09:09:21.646Z,14.53
2023-02-12T09:11:48.377Z,14.51
2023-02-12T09:14:17.187Z,14.51
2023-02-12T09:16:43.952Z,14.48
2023-02-12T09:19:12.946Z,14.47
2023-02-12T09:21:39.665Z,14.46
2023-02-12T09:24:06.461Z,14.51
2023-02-12T09:26:33.061Z,14.51
2023-02-12T09:29:02.696Z,14.56
2023-02-12T09:31:31.869Z,14.55
2023-02-12T09:34:01.314Z,14.59
2023-02-12T09:36:28.824Z,14.59
2023-02-12T09:38:56.606Z,14.58
2023-02-12T09:41:35.042Z,14.63
2023-02-12T09:44:04.499Z,14.64
2023-02-12T09:46:56.389Z,14.64
2023-02-12T09:49:26.500Z,14.65
2023-02-12T09:51:54.897Z,14.65
2023-02-12T09:54:25.851Z,14.63
2023-02-12T09:57:00.927Z,14.66
2023-02-12T09:59:45.422Z,14.66
2023-02-12T10:02:19.083Z,14.67
2023-02-12T10:05:00.768Z,14.67
2023-02-12T10:07:33.841Z,14.71
2023-02-12T10:10:24.402Z,14.72
2023-02-12T10:13:00.024Z,14.73
2023-02-12T10:15:41.719Z,14.73
2023-02-12T10:18:35.632Z,14.74
2023-02-12T10:21:15.226Z,14.75
2023-02-12T10:24:00.425Z,14.75
2023-02-12T10:26:31.807Z,14.75
2023-02-12T10:29:10.599Z,14.73
2023-02-12T10:31:42.489Z,14.76
2023-02-12T10:34:22.616Z,14.75
2023-02-12T10:36:52.711Z,14.78
2023-02-12T10:39:27.811Z,14.79
2023-02-12T10:42:11.584Z,14.79
2023-02-12T10:44:38.196Z,14.77
2023-02-12T10:47:04.809Z,14.81
2023-02-12T10:49:32.985Z,14.80
2023-02-12T10:52:34.768Z,14.81
2023-02-12T10:55:01.740Z,14.80
2023-02-12T10:57:31.481Z,14.82
2023-02-12T11:00:36.230Z,14.82
2023-02-12T11:03:04.937Z,14.83
2023-02-12T11:05:35.924Z,14.84
2023-02-12T11:08:03.352Z,14.83
2023-02-12T11:10:32.046Z,14.82
2023-02-12T11:13:01.049Z,14.85
2023-02-12T11:15:46.884Z,14.84
2023-02-12T11:18:25.310Z,14.86
2023-02-12T11:20:58.584Z,14.85
2023-02-12T11:23:34.878Z,14.84
2023-02-12T11:26:07.790Z,14.88
2023-02-12T11:28:36.582Z,14.90
2023-02-12T11:31:22.417Z,14.90
2023-02-12T11:34:07.176Z,14.91
2023-02-12T11:36:37.342Z,14.90
2023-02-12T11:39:04.732Z,14.94
2023-02-12T11:41:40.997Z,14.89
2023-02-12T11:44:13.534Z,14.95
2023-02-12T11:46:46.458Z,14.89
2023-02-12T11:49:22.680Z,14.93
2023-02-12T11:51:50.070Z,14.92
2023-02-12T11:54:27.371Z,14.97
2023-02-12T11:56:55.471Z,14.95
2023-02-12T11:59:29.183Z,14.95
2023-02-12T12:01:59.286Z,14.97
2023-02-12T12:04:31.841Z,14.95
2023-02-12T12:07:06.020Z,14.99
2023-02-12T12:09:48.323Z,14.99
2023-02-12T12:12:25.231Z,14.97
2023-02-12T12:15:22.015Z,14.94
2023-02-12T12:18:15.860Z,15.00
2023-02-12T12:20:50.629Z,14.93
2023-02-12T12:23:37.356Z,14.98
2023-02-12T12:26:34.724Z,15.02
2023-02-12T12:29:22.037Z,15.02
2023-02-12T12:31:59.542Z,14.99
2023-02-12T12:34:28.160Z,15.02
2023-02-12T12:37:16.023Z,15.05
2023-02-12T12:40:08.437Z,15.04
2023-02-12T12:42:41.112Z,15.05
2023-02-12T12:45:30.377Z,15.06
2023-02-12T12:48:31.121Z,15.05
2023-02-12T12:51:27.232Z,15.07
2023-02-12T12:54:06.089Z,15.07
2023-02-12T12:56:41.812Z,15.07
2023-02-12T12:59:17.582Z,15.07
2023-02-12T13:02:29.165Z,15.04
2023-02-12T13:05:13.954Z,15.06
2023-02-12T13:08:25.263Z,15.06
2023-02-12T13:11:25.040Z,15.05
2023-02-12T13:14:04.643Z,15.07
2023-02-12T13:16:41.099Z,15.06
2023-02-12T13:19:30.493Z,15.07
2023-02-12T13:21:57.068Z,15.07
2023-02-12T13:24:45.213Z,15.07
2023-02-12T13:27:25.780Z,15.08
2023-02-12T13:30:05.110Z,15.04
2023-02-12T13:32:43.391Z,15.08
2023-02-12T13:35:16.629Z,15.05
2023-02-12T13:37:48.848Z,15.08
2023-02-12T13:40:20.416Z,15.08
2023-02-12T13:43:00.862Z,15.03
2023-02-12T13:45:33.883Z,15.08
2023-02-12T13:48:31.314Z,15.07
2023-02-12T13:51:18.174Z,15.08
2023-02-12T13:54:17.176Z,15.08
2023-02-12T13:56:46.908Z,15.06
2023-02-12T13:59:32.109Z,15.07
2023-02-12T14:02:00.052Z,15.03
2023-02-12T14:04:35.119Z,15.04
2023-02-12T14:07:16.399Z,15.08
2023-02-12T14:09:59.623Z,15.08
2023-02-12T14:12:26.097Z,15.10
2023-02-12T14:15:06.109Z,15.05
2023-02-12T14:17:32.561Z,15.11
2023-02-12T14:20:22.386Z,15.14
2023-02-12T14:22:49.005Z,15.15
2023-02-12T14:25:24.594Z,15.19
2023-02-12T14:28:03.005Z,15.22
2023-02-12T14:30:33.395Z,15.22
2023-02-12T14:33:10.753Z,15.24
2023-02-12T14:35:40.543Z,15.21
2023-02-12T14:38:32.170Z,15.25
2023-02-12T14:41:43.223Z,15.25
2023-02-12T14:44:20.587Z,15.26
2023-02-12T14:46:56.268Z,15.23
2023-02-12T14:49:33.359Z,15.25
2023-02-12T14:52:26.635Z,15.26
2023-02-12T14:54:56.857Z,15.26
2023-02-12T14:57:38.623Z,15.26
2023-02-12T15:00:14.241Z,15.26
2023-02-12T15:02:42.118Z,15.25
2023-02-12T15:05:18.941Z,15.28
2023-02-12T15:08:32.094Z,15.26
2023-02-12T15:11:26.692Z,15.24
2023-02-12T15:14:22.457Z,15.26
2023-02-12T15:17:11.568Z,15.24
2023-02-12T15:19:52.327Z,15.27
2023-02-12T15:22:29.523Z,15.26
2023-02-12T15:25:22.884Z,15.26
2023-02-12T15:27:50.969Z,15.27
2023-02-12T15:30:26.278Z,15.26
2023-02-12T15:32:56.341Z,15.25
2023-02-12T15:35:26.848Z,15.28
2023-02-12T15:37:55.504Z,15.27
2023-02-12T15:40:22.746Z,15.28
2023-02-12T15:42:57.229Z,15.29
2023-02-12T15:45:32.480Z,15.27
2023-02-12T15:48:17.964Z,15.30
2023-02-12T15:50:50.353Z,15.29
2023-02-12T15:53:17.760Z,15.29
2023-02-12T15:55:46.638Z,15.29
2023-02-12T15:58:21.350Z,15.29
2023-02-12T16:00:49.185Z,15.24
2023-02-12T16:03:24.293Z,15.27
2023-02-12T16:05:52.930Z,15.32
2023-02-12T16:08:23.243Z,15.33
2023-02-12T16:10:53.125Z,15.33
2023-02-12T16:13:29.184Z,15.32
2023-02-12T16:16:16.224Z,15.33
2023-02-12T16:18:43.965Z,15.34
2023-02-12T16:21:21.800Z,15.33
2023-02-12T16:23:50.480Z,15.29
2023-02-12T16:26:24.164Z,15.32
2023-02-12T16:28:57.016Z,15.31
2023-02-12T16:31:26.874Z,15.33
2023-02-12T16:33:58.582Z,15.32
2023-02-12T16:36:25.286Z,15.34
2023-02-12T16:38:58.457Z,15.29
2023-02-12T16:41:28.029Z,15.33
2023-02-12T16:43:54.482Z,15.33
2023-02-12T16:46:21.071Z,15.33
2023-02-12T16:48:52.947Z,15.33
2023-02-12T16:51:31.701Z,15.33
2023-02-12T16:54:00.118Z,15.30
2023-02-12T16:56:29.369Z,15.32
2023-02-12T16:59:00.312Z,15.32
2023-02-12T17:01:28.550Z,15.32
2023-02-12T17:03:56.119Z,15.28
2023-02-12T17:06:25.357Z,15.26
2023-02-12T17:08:52.064Z,15.30
2023-02-12T17:11:19.066Z,15.30
2023-02-12T17:13:47.814Z,15.28
2023-02-12T17:16:29.495Z,15.30
2023-02-12T17:18:57.319Z,15.29
2023-02-12T17:21:24.924Z,15.32
2023-02-12T17:23:53.858Z,15.27
2023-02-12T17:26:21.834Z,15.33
2023-02-12T17:28:48.564Z,15.33
2023-02-12T17:31:15.431Z,15.28
2023-02-12T17:33:42.100Z,15.32
2023-02-12T17:36:09.090Z,15.26
2023-02-12T17:38:35.630Z,15.30
2023-02-12T17:41:02.232Z,15.33
2023-02-12T17:43:28.795Z,15.32
2023-02-12T17:45:55.409Z,15.31
2023-02-12T17:48:24.041Z,15.30
2023-02-12T17:50:55.700Z,15.33
2023-02-12T17:53:22.845Z,15.29
2023-02-12T17:55:49.470Z,15.30
2023-02-12T17:58:16.164Z,15.31
2023-02-12T18:00:42.718Z,15.32
2023-02-12T18:03:09.579Z,15.33
2023-02-12T18:05:41.535Z,15.32
2023-02-12T18:08:09.008Z,15.33
2023-02-12T18:10:43.262Z,15.33
2023-02-12T18:13:09.899Z,15.32
2023-02-12T18:15:37.454Z,15.31
2023-02-12T18:18:04.100Z,15.31
2023-02-12T18:20:30.668Z,15.31
2023-02-12T18:22:57.310Z,15.32
2023-02-12T18:25:23.898Z,15.34
2023-02-12T18:27:50.434Z,15.34
2023-02-12T18:30:17.204Z,15.30
2023-02-12T18:32:43.710Z,15.30
2023-02-12T18:35:10.322Z,15.30
2023-02-12T18:37:36.891Z,15.30
2023-02-12T18:40:03.884Z,15.34
2023-02-12T18:42:33.263Z,15.30
2023-02-12T18:44:59.801Z,15.34
2023-02-12T18:47:26.364Z,15.30
2023-02-12T18:49:52.894Z,15.34
2023-02-12T18:52:19.435Z,15.32
2023-02-12T18:54:46.023Z,15.33
2023-02-12T18:57:12.625Z,15.34
2023-02-12T18:59:39.186Z,15.34
2023-02-12T19:02:06.718Z,15.31
2023-02-12T19:04:33.440Z,15.30
2023-02-12T19:06:59.992Z,15.32
2023-02-12T19:09:26.824Z,15.28
2023-02-12T19:11:56.190Z,15.33
2023-02-12T19:14:24.127Z,15.31
2023-02-12T19:16:51.302Z,15.30
2023-02-12T19:19:20.178Z,15.32
2023-02-12T19:21:47.095Z,15.29
2023-02-12T19:24:15.449Z,15.32
2023-02-12T19:26:44.274Z,15.30
2023-02-12T19:29:12.413Z,15.27
2023-02-12T19:31:44.085Z,15.33
2023-02-12T19:34:17.982Z,15.33
2023-02-12T19:36:44.878Z,15.29
2023-02-12T19:39:15.085Z,15.32
2023-02-12T19:41:41.726Z,15.32
2023-02-12T19:44:13.699Z,15.32
2023-02-12T19:46:41.103Z,15.30
2023-02-12T19:49:12.482Z,15.29
2023-02-12T19:51:39.623Z,15.30
2023-02-12T19:54:10.394Z,15.32
2023-02-12T19:56:37.723Z,15.29
2023-02-12T19:59:06.360Z,15.29
2023-02-12T20:01:33.447Z,15.28
2023-02-12T20:04:01.097Z,15.30
2023-02-12T20:06:35.077Z,15.32
2023-02-12T20:09:02.429Z,15.25
2023-02-12T20:11:31.627Z,15.33
2023-02-12T20:13:58.749Z,15.28
2023-02-12T20:16:31.211Z,15.27
2023-02-12T20:19:01.720Z,15.29
2023-02-12T20:21:28.961Z,15.30
2023-02-12T20:23:56.133Z,15.26
2023-02-12T20:26:23.391Z,15.28
2023-02-12T20:28:50.580Z,15.27
2023-02-12T20:31:26.560Z,15.31
2023-02-12T20:34:01.565Z,15.31
2023-02-12T20:36:36.602Z,15.27
2023-02-12T20:39:05.105Z,15.28
2023-02-12T20:41:32.075Z,15.27
2023-02-12T20:44:00.797Z,15.26
2023-02-12T20:46:27.836Z,15.32
2023-02-12T20:48:55.205Z,15.29
2023-02-12T20:51:25.481Z,15.32
2023-02-12T20:53:52.875Z,15.30
2023-02-12T20:56:25.835Z,15.32
2023-02-12T20:58:53.433Z,15.29
2023-02-12T21:01:23.216Z,15.28
2023-02-12T21:03:51.946Z,15.32
2023-02-12T21:06:19.814Z,15.27
2023-02-12T21:08:47.053Z,15.31
2023-02-12T21:11:19.918Z,15.31
2023-02-12T21:13:58.609Z,15.33
2023-02-12T21:16:38.429Z,15.33
2023-02-12T21:19:04.975Z,15.31
2023-02-12T21:21:32.354Z,15.29
2023-02-12T21:24:00.874Z,15.32
2023-02-12T21:26:29.893Z,15.32
2023-02-12T21:28:59.166Z,15.33
2023-02-12T21:31:40.128Z,15.32
2023-02-12T21:34:09.123Z,15.33
2023-02-12T21:36:38.727Z,15.33
2023-02-12T21:39:07.161Z,15.32
2023-02-12T21:41:36.840Z,15.34
2023-02-12T21:44:04.774Z,15.34
2023-02-12T21:46:31.441Z,15.35
2023-02-12T21:48:59.136Z,15.35
2023-02-12T21:51:31.856Z,15.34
2023-02-12T21:54:01.151Z,15.36
2023-02-12T21:56:28.990Z,15.30
2023-02-12T21:58:57.769Z,15.36
2023-02-12T22:01:32.385Z,15.36
2023-02-12T22:04:01.511Z,15.36
2023-02-12T22:06:28.446Z,15.31
2023-02-12T22:08:56.660Z,15.36
2023-02-12T22:11:23.398Z,15.34
2023-02-12T22:13:50.150Z,15.34
2023-02-12T22:16:23.092Z,15.36
2023-02-12T22:18:52.604Z,15.36
2023-02-12T22:21:19.195Z,15.37
2023-02-12T22:23:45.792Z,15.33
2023-02-12T22:26:15.522Z,15.37
2023-02-12T22:28:50.689Z,15.35
2023-02-12T22:31:21.883Z,15.32
2023-02-12T22:33:54.211Z,15.33
2023-02-12T22:36:23.004Z,15.31
2023-02-12T22:38:49.525Z,15.30
2023-02-12T22:41:16.348Z,15.31
2023-02-12T22:43:42.932Z,15.31
2023-02-12T22:46:11.968Z,15.33
2023-02-12T22:48:39.363Z,15.30
2023-02-12T22:51:11.628Z,15.31
2023-02-12T22:53:38.540Z,15.29
2023-02-12T22:56:06.809Z,15.31
2023-02-12T22:58:34.128Z,15.28
2023-02-12T23:01:12.239Z,15.30
2023-02-12T23:03:38.944Z,15.29
2023-02-12T23:06:16.951Z,15.26
2023-02-12T23:08:44.277Z,15.24
2023-02-12T23:11:12.047Z,15.25
2023-02-12T23:13:38.762Z,15.24
2023-02-12T23:16:05.377Z,15.28
2023-02-12T23:18:32.389Z,15.28
2023-02-12T23:20:59.308Z,15.24
2023-02-12T23:23:26.170Z,15.23
2023-02-12T23:25:54.499Z,15.26
2023-02-12T23:28:22.550Z,15.21
2023-02-12T23:30:50.991Z,15.26
2023-02-12T23:33:18.164Z,15.26
2023-02-12T23:35:45.590Z,15.24
2023-02-12T23:38:12.662Z,15.25
2023-02-12T23:40:40.371Z,15.20
2023-02-12T23:43:07.173Z,15.25
2023-02-12T23:45:33.808Z,15.22
2023-02-12T23:48:00.792Z,15.24
2023-02-12T23:50:27.384Z,15.21
2023-02-12T23:52:53.960Z,15.19
2023-02-12T23:55:20.630Z,15.20
2023-02-12T23:57:47.828Z,15.20
